Time;durP1;ratioP1;P1;durP2;ratioP2;P2;SDS_P1;SDS_P2;PMS_P1;PMS_P2;Temp;Humidity;BMP_temperature;BMP_pressure;BME280_temperature;BME280_humidity;BME280_pressure;Samples;Min_cycle;Max_cycle;Signal;HPM_P1;HPM_P2
2021/10/19 00:01:55;;;;;;;27.17;21.10;;;9.10;99.90;;;;;;5055007;28;20560;-52
2021/10/19 00:04:23;;;;;;;24.05;18.02;;;9.20;99.90;;;;;;5054462;28;20208;-55
2021/10/19 00:06:50;;;;;;;32.00;21.25;;;9.20;99.90;;;;;;5052536;28;20389;-53
2021/10/19 00:09:18;;;;;;;27.20;19.10;;;9.10;99.90;;;;;;5053126;28;20204;-53
2021/10/19 00:11:45;;;;;;;23.20;17.65;;;9.10;99.90;;;;;;5053805;28;20387;-53
2021/10/19 00:14:13;;;;;;;23.30;20.25;;;9.20;99.90;;;;;;5051907;28;20207;-57
2021/10/19 00:16:39;;;;;;;29.92;19.70;;;9.20;99.90;;;;;;5054286;28;20200;-54
2021/10/19 00:19:07;;;;;;;25.65;20.67;;;9.20;99.90;;;;;;5052717;28;20382;-57
2021/10/19 00:21:34;;;;;;;30.85;22.30;;;9.00;99.90;;;;;;5055703;28;20511;-53
2021/10/19 00:24:01;;;;;;;27.70;19.33;;;8.90;99.90;;;;;;5054969;28;20199;-53
2021/10/19 00:26:28;;;;;;;26.42;18.15;;;8.90;99.90;;;;;;5053949;28;20515;-52
2021/10/19 00:28:55;;;;;;;26.20;18.60;;;8.90;99.90;;;;;;5052094;28;20228;-53
2021/10/19 00:31:22;;;;;;;26.90;20.10;;;8.90;99.90;;;;;;5047532;28;20696;-57
2021/10/19 00:33:53;;;;;;;28.88;18.80;;;8.70;99.90;;;;;;5041827;28;20206;-52
2021/10/19 00:36:20;;;;;;;25.98;18.88;;;8.60;99.90;;;;;;5045552;28;20203;-51
2021/10/19 00:38:47;;;;;;;25.90;19.35;;;8.60;99.90;;;;;;5042254;28;20232;-52
2021/10/19 00:41:14;;;;;;;21.95;17.10;;;8.60;99.90;;;;;;5045812;28;20518;-51
2021/10/19 00:43:42;;;;;;;21.42;17.80;;;8.60;99.90;;;;;;5048266;28;20203;-51
2021/10/19 00:46:12;;;;;;;27.02;22.27;;;8.60;99.90;;;;;;5045574;28;20200;-56
2021/10/19 00:48:40;;;;;;;22.33;16.45;;;8.60;99.90;;;;;;5044141;28;20211;-53
2021/10/19 00:51:09;;;;;;;21.90;16.13;;;8.40;99.90;;;;;;5042736;28;20607;-52
2021/10/19 00:53:37;;;;;;;21.23;16.08;;;8.50;99.90;;;;;;5042085;28;20200;-52
2021/10/19 00:56:07;;;;;;;21.67;17.70;;;8.40;99.90;;;;;;5043729;28;20200;-56
2021/10/19 00:58:39;;;;;;;24.20;17.15;;;8.30;99.90;;;;;;5042469;28;20278;-54
2021/10/19 01:01:07;;;;;;;21.48;17.20;;;8.40;99.90;;;;;;5048626;28;20544;-53
2021/10/19 01:03:35;;;;;;;25.83;15.35;;;8.30;99.90;;;;;;5048053;28;20242;-51
2021/10/19 01:06:05;;;;;;;20.30;15.13;;;8.30;99.90;;;;;;5048633;28;20242;-53
2021/10/19 01:08:36;;;;;;;22.35;18.40;;;8.40;99.90;;;;;;5048795;28;20298;-51
2021/10/19 01:11:07;;;;;;;25.35;17.80;;;8.40;99.90;;;;;;5045870;28;20432;-56
2021/10/19 01:13:35;;;;;;;26.45;17.52;;;8.40;99.90;;;;;;5048715;28;20238;-50
2021/10/19 01:16:10;;;;;;;22.83;16.85;;;8.50;99.90;;;;;;5051201;28;20230;-53
2021/10/19 01:18:38;;;;;;;27.48;18.33;;;8.30;99.90;;;;;;5047418;28;20219;-54
2021/10/19 01:21:07;;;;;;;23.73;17.30;;;8.20;99.90;;;;;;5047828;28;20263;-53
2021/10/19 01:23:44;;;;;;;29.30;15.25;;;8.10;99.90;;;;;;5049773;28;20446;-52
2021/10/19 01:26:17;;;;;;;23.15;16.25;;;8.00;99.90;;;;;;5049720;28;20210;-50
2021/10/19 01:28:53;;;;;;;19.02;15.77;;;7.90;99.90;;;;;;5046381;28;20254;-52
2021/10/19 01:31:20;;;;;;;21.35;16.02;;;7.90;99.90;;;;;;5056173;28;20199;-56
2021/10/19 01:33:48;;;;;;;17.95;15.88;;;8.00;99.90;;;;;;5051277;28;20230;-52
2021/10/19 01:36:15;;;;;;;23.10;17.15;;;8.10;99.90;;;;;;5047108;28;20472;-54
2021/10/19 01:38:42;;;;;;;23.10;16.80;;;8.30;99.90;;;;;;5051112;28;20227;-50
2021/10/19 01:41:10;;;;;;;22.83;16.48;;;8.20;99.90;;;;;;5048275;28;20255;-57
2021/10/19 01:43:36;;;;;;;24.92;17.85;;;8.10;99.90;;;;;;5050215;28;20196;-45
2021/10/19 01:46:04;;;;;;;19.80;15.80;;;8.00;99.90;;;;;;5047333;28;20546;-52
2021/10/19 01:48:33;;;;;;;23.45;15.75;;;7.80;99.90;;;;;;5047513;28;20567;-54
2021/10/19 01:51:00;;;;;;;21.42;15.55;;;7.80;99.90;;;;;;5048141;28;20427;-51
2021/10/19 01:53:28;;;;;;;22.15;14.73;;;7.80;99.90;;;;;;5046049;28;20204;-52
2021/10/19 01:55:55;;;;;;;19.25;13.75;;;7.80;99.90;;;;;;5048352;28;20379;-53
2021/10/19 01:58:24;;;;;;;20.13;13.35;;;7.90;99.90;;;;;;5047726;28;20534;-52
2021/10/19 02:00:55;;;;;;;24.48;15.02;;;7.80;99.90;;;;;;5050285;28;20553;-52
2021/10/19 02:03:23;;;;;;;18.25;13.88;;;7.90;99.90;;;;;;5047685;28;20203;-50
2021/10/19 02:05:51;;;;;;;24.33;14.68;;;8.00;99.90;;;;;;5048564;28;20218;-56
2021/10/19 02:08:18;;;;;;;21.52;14.43;;;8.10;99.90;;;;;;5046138;28;20223;-53
2021/10/19 02:10:46;;;;;;;18.48;14.52;;;8.20;99.90;;;;;;5042752;28;20234;-53
2021/10/19 02:13:13;;;;;;;20.55;15.32;;;8.30;99.90;;;;;;5042085;28;20208;-53
2021/10/19 02:15:41;;;;;;;24.70;15.15;;;8.40;99.90;;;;;;5043172;28;20987;-48
2021/10/19 02:18:09;;;;;;;20.67;13.38;;;8.30;99.90;;;;;;5044954;28;20291;-52
2021/10/19 02:20:38;;;;;;;14.93;11.73;;;8.30;99.90;;;;;;5043833;28;20212;-52
2021/10/19 02:23:05;;;;;;;21.35;15.20;;;8.10;99.90;;;;;;5047028;28;20430;-52
2021/10/19 02:25:33;;;;;;;22.58;13.48;;;8.10;99.90;;;;;;5046110;28;20204;-56
2021/10/19 02:28:00;;;;;;;19.65;12.95;;;8.10;99.90;;;;;;5042774;28;20262;-54
2021/10/19 02:30:28;;;;;;;15.88;12.68;;;8.00;99.90;;;;;;5042095;28;20208;-56
2021/10/19 02:32:56;;;;;;;16.33;12.77;;;8.00;99.90;;;;;;5046444;28;20207;-52
2021/10/19 02:35:24;;;;;;;17.77;12.40;;;8.10;99.90;;;;;;5044149;28;20367;-50
2021/10/19 02:37:53;;;;;;;17.52;12.70;;;8.00;99.90;;;;;;5044587;28;20227;-51
2021/10/19 02:40:21;;;;;;;16.92;12.60;;;8.00;99.90;;;;;;5044347;28;20227;-53
2021/10/19 02:42:48;;;;;;;16.80;11.82;;;8.10;99.90;;;;;;5043983;28;20242;-55
2021/10/19 02:45:17;;;;;;;18.02;12.55;;;8.10;99.90;;;;;;5045933;28;20238;-50
2021/10/19 02:47:44;;;;;;;16.67;11.27;;;8.20;99.90;;;;;;5043129;28;20392;-50
2021/10/19 02:50:12;;;;;;;21.90;13.23;;;8.20;99.90;;;;;;5045218;28;20209;-49
2021/10/19 02:52:40;;;;;;;16.10;11.82;;;8.20;99.90;;;;;;5042183;28;20200;-53
2021/10/19 02:55:09;;;;;;;18.58;14.60;;;8.30;99.90;;;;;;5042163;28;20339;-47
2021/10/19 02:57:37;;;;;;;17.92;12.60;;;8.50;99.90;;;;;;5044251;28;20219;-52
2021/10/19 03:00:07;;;;;;;12.65;11.23;;;8.40;99.90;;;;;;5043989;28;20558;-52
2021/10/19 03:02:35;;;;;;;14.10;11.13;;;8.40;99.90;;;;;;5045896;28;20203;-50
2021/10/19 03:05:03;;;;;;;16.88;11.57;;;8.50;99.90;;;;;;5043235;28;20429;-51
2021/10/19 03:07:30;;;;;;;16.90;11.50;;;8.60;99.90;;;;;;5043767;28;20223;-53
2021/10/19 03:09:58;;;;;;;20.98;12.65;;;8.50;99.90;;;;;;5042256;28;20530;-53
2021/10/19 03:12:24;;;;;;;23.70;14.35;;;8.50;99.90;;;;;;5044044;28;20243;-52
2021/10/19 03:14:51;;;;;;;16.27;11.15;;;8.30;99.90;;;;;;5041742;28;20200;-51
2021/10/19 03:17:19;;;;;;;17.42;10.25;;;8.20;99.90;;;;;;5047649;28;20235;-52
2021/10/19 03:19:46;;;;;;;15.48;12.50;;;8.40;99.90;;;;;;5044913;28;20246;-51
2021/10/19 03:22:14;;;;;;;19.30;11.35;;;8.40;99.90;;;;;;5043280;28;20217;-51
2021/10/19 03:24:45;;;;;;;14.75;11.80;;;8.50;99.90;;;;;;5044391;28;20196;-51
2021/10/19 03:27:13;;;;;;;15.18;10.60;;;8.70;99.90;;;;;;5042539;28;20216;-52
2021/10/19 03:29:41;;;;;;;11.98;10.70;;;8.70;99.90;;;;;;5041828;28;20315;-53
2021/10/19 03:32:08;;;;;;;15.07;11.05;;;8.90;99.90;;;;;;5041225;28;20411;-52
2021/10/19 03:34:36;;;;;;;15.23;11.35;;;9.00;99.90;;;;;;5045610;28;20530;-46
2021/10/19 03:37:05;;;;;;;18.13;12.82;;;9.00;99.90;;;;;;5042609;28;20259;-54
2021/10/19 03:39:32;;;;;;;14.60;11.07;;;9.00;99.90;;;;;;5042525;28;20232;-52
2021/10/19 03:42:00;;;;;;;13.45;10.63;;;8.90;99.90;;;;;;5045465;28;20246;-55
2021/10/19 03:44:27;;;;;;;10.85;9.75;;;8.90;99.90;;;;;;5042515;28;20997;-51
2021/10/19 03:46:54;;;;;;;12.32;10.50;;;9.00;99.90;;;;;;5043569;28;20216;-50
2021/10/19 03:49:21;;;;;;;13.05;10.90;;;9.10;99.90;;;;;;5042942;28;20212;-57
2021/10/19 03:51:49;;;;;;;12.35;9.88;;;8.80;99.90;;;;;;5042181;28;20261;-52
2021/10/19 03:54:16;;;;;;;14.30;10.70;;;8.70;99.90;;;;;;5041478;28;20204;-53
2021/10/19 03:56:43;;;;;;;11.45;9.80;;;8.60;99.90;;;;;;5040517;28;20370;-53
2021/10/19 03:59:10;;;;;;;17.35;11.90;;;8.60;99.90;;;;;;5042898;28;20222;-50
2021/10/19 04:01:38;;;;;;;13.18;9.80;;;8.50;99.90;;;;;;5044638;28;20246;-54
2021/10/19 04:04:05;;;;;;;11.02;8.00;;;8.60;99.90;;;;;;5057688;28;20196;-53
2021/10/19 04:06:33;;;;;;;14.82;10.05;;;8.50;99.90;;;;;;5060418;28;20208;-55
2021/10/19 04:09:00;;;;;;;12.07;9.60;;;8.60;99.90;;;;;;5058203;28;20273;-54
2021/10/19 04:11:28;;;;;;;16.45;11.13;;;8.80;99.90;;;;;;5060685;28;20218;-51
2021/10/19 04:13:55;;;;;;;11.18;9.23;;;8.70;99.90;;;;;;5053083;28;20502;-50
2021/10/19 04:16:22;;;;;;;14.45;10.25;;;8.90;99.90;;;;;;5043681;28;20572;-51
2021/10/19 04:18:49;;;;;;;9.32;8.27;;;9.00;99.90;;;;;;5045722;28;20231;-54
2021/10/19 04:21:17;;;;;;;11.98;8.65;;;9.00;99.90;;;;;;5056304;28;20262;-51
2021/10/19 04:23:44;;;;;;;19.52;10.55;;;9.00;99.90;;;;;;5051512;28;20191;-54
2021/10/19 04:26:12;;;;;;;13.00;9.55;;;8.70;99.90;;;;;;5051815;28;20234;-50
2021/10/19 04:28:40;;;;;;;10.52;8.75;;;8.60;99.90;;;;;;5051955;28;20223;-51
2021/10/19 04:31:08;;;;;;;11.13;9.98;;;8.50;99.90;;;;;;5060705;28;20195;-52
2021/10/19 04:33:35;;;;;;;11.55;8.38;;;8.40;99.90;;;;;;5055058;28;20200;-54
2021/10/19 04:36:04;;;;;;;14.65;9.63;;;8.50;99.90;;;;;;5057207;28;20253;-53
2021/10/19 04:38:33;;;;;;;14.23;7.93;;;8.50;99.90;;;;;;5053278;28;20231;-52
2021/10/19 04:41:01;;;;;;;8.25;7.38;;;8.60;99.90;;;;;;5050216;28;20217;-52
2021/10/19 04:43:29;;;;;;;8.07;6.80;;;8.50;99.90;;;;;;5044065;28;20200;-52
2021/10/19 04:45:56;;;;;;;11.93;8.43;;;8.60;99.90;;;;;;5059222;28;20199;-55
2021/10/19 04:48:23;;;;;;;8.55;7.65;;;8.60;99.90;;;;;;5041193;28;20319;-59
2021/10/19 04:50:50;;;;;;;7.13;6.43;;;8.60;99.90;;;;;;5056867;28;20203;-54
2021/10/19 04:53:17;;;;;;;11.90;7.45;;;8.60;99.90;;;;;;5059574;28;20441;-51
2021/10/19 04:55:47;;;;;;;10.25;7.70;;;8.60;99.90;;;;;;5048063;28;20204;-52
2021/10/19 04:58:15;;;;;;;10.93;7.90;;;8.50;99.90;;;;;;5050206;28;20238;-52
2021/10/19 05:00:43;;;;;;;9.88;7.60;;;8.50;99.90;;;;;;5047872;28;20235;-51
2021/10/19 05:03:11;;;;;;;13.23;8.57;;;8.40;99.90;;;;;;5056850;28;20196;-52
2021/10/19 05:05:38;;;;;;;9.70;8.80;;;8.50;99.90;;;;;;5043297;28;20218;-53
2021/10/19 05:08:05;;;;;;;12.27;8.65;;;8.50;99.90;;;;;;5059339;28;20253;-50
2021/10/19 05:10:33;;;;;;;10.40;8.52;;;8.50;99.90;;;;;;5059928;28;20516;-51
2021/10/19 05:13:00;;;;;;;9.45;7.65;;;8.40;99.90;;;;;;5049735;28;20238;-55
2021/10/19 05:15:27;;;;;;;14.38;8.57;;;8.30;99.90;;;;;;5046772;28;20514;-52
2021/10/19 05:17:55;;;;;;;10.85;8.95;;;8.20;99.90;;;;;;5057981;28;20219;-47
2021/10/19 05:20:22;;;;;;;12.20;8.82;;;8.10;99.90;;;;;;5051099;28;20223;-51
2021/10/19 05:22:50;;;;;;;16.73;10.55;;;8.10;99.90;;;;;;5059169;28;20486;-53
2021/10/19 05:25:17;;;;;;;13.70;9.70;;;8.00;99.90;;;;;;5054691;28;20434;-55
2021/10/19 05:27:45;;;;;;;14.45;10.77;;;7.90;99.90;;;;;;5042193;28;20223;-46
2021/10/19 05:30:13;;;;;;;16.67;8.55;;;7.90;99.90;;;;;;5056743;28;20200;-52
2021/10/19 05:32:40;;;;;;;15.40;11.50;;;7.90;99.90;;;;;;5053984;28;20249;-53
2021/10/19 05:35:07;;;;;;;11.75;9.27;;;7.90;99.90;;;;;;5047495;28;20199;-52
2021/10/19 05:37:38;;;;;;;9.57;8.40;;;7.90;99.90;;;;;;5050609;28;20228;-52
2021/10/19 05:40:06;;;;;;;11.15;9.13;;;7.90;99.90;;;;;;5039042;28;20220;-50
2021/10/19 05:42:44;;;;;;;12.10;10.10;;;8.00;99.90;;;;;;5059315;28;20270;-50
2021/10/19 05:45:11;;;;;;;9.65;8.20;;;8.00;99.90;;;;;;5060394;28;20545;-51
2021/10/19 05:47:41;;;;;;;10.18;9.07;;;8.00;99.90;;;;;;5052442;28;20266;-60
2021/10/19 05:50:09;;;;;;;18.55;9.20;;;8.20;99.90;;;;;;5056558;28;20266;-51
2021/10/19 05:52:36;;;;;;;12.20;8.95;;;8.40;99.90;;;;;;5064509;28;20208;-51
2021/10/19 05:55:03;;;;;;;12.07;8.85;;;8.50;99.90;;;;;;5062966;28;20211;-56
2021/10/19 05:57:30;;;;;;;11.25;8.32;;;8.50;99.90;;;;;;5064595;28;20277;-55
2021/10/19 05:59:57;;;;;;;10.80;8.93;;;8.50;99.90;;;;;;5060414;28;20569;-51
2021/10/19 06:02:25;;;;;;;9.85;8.68;;;8.60;99.90;;;;;;5061438;28;20493;-51
2021/10/19 06:04:52;;;;;;;12.73;8.60;;;8.70;99.90;;;;;;5059052;28;20203;-51
2021/10/19 06:07:20;;;;;;;8.60;7.72;;;9.00;99.90;;;;;;5058673;28;20465;-45
2021/10/19 06:09:47;;;;;;;9.20;7.93;;;9.20;99.90;;;;;;5057748;28;20362;-52
2021/10/19 06:12:14;;;;;;;12.30;8.45;;;9.30;99.90;;;;;;5062059;28;20557;-51
2021/10/19 06:14:41;;;;;;;9.45;7.15;;;9.40;99.90;;;;;;5062457;28;20207;-52
2021/10/19 06:17:11;;;;;;;14.18;7.05;;;9.60;99.90;;;;;;5054519;28;20212;-54
2021/10/19 06:19:38;;;;;;;7.28;6.60;;;9.70;99.90;;;;;;5060725;28;20420;-52
2021/10/19 06:22:05;;;;;;;7.10;6.05;;;9.90;99.90;;;;;;5050096;28;20410;-55
2021/10/19 06:24:32;;;;;;;7.30;6.60;;;9.90;99.90;;;;;;5061788;28;20195;-51
2021/10/19 06:26:59;;;;;;;6.90;6.20;;;9.90;99.90;;;;;;5049220;28;20216;-53
2021/10/19 06:29:29;;;;;;;12.40;9.77;;;10.00;99.90;;;;;;5059995;28;21045;-54
2021/10/19 06:31:56;;;;;;;6.93;5.70;;;10.00;99.90;;;;;;5061609;28;20242;-52
2021/10/19 06:34:24;;;;;;;9.32;6.63;;;10.20;99.90;;;;;;5057021;28;20311;-50
2021/10/19 06:36:51;;;;;;;6.65;5.70;;;10.40;99.90;;;;;;5062016;28;20200;-50
2021/10/19 06:39:18;;;;;;;6.28;5.68;;;10.30;99.90;;;;;;5059289;28;20200;-54
2021/10/19 06:41:45;;;;;;;7.55;5.97;;;10.50;99.90;;;;;;5061538;28;20260;-54
2021/10/19 06:44:15;;;;;;;6.63;5.45;;;10.70;99.90;;;;;;5047770;28;20200;-54
2021/10/19 06:47:02;;;;;;;5.60;5.10;;;10.70;99.90;;;;;;5058434;28;20405;-51
2021/10/19 06:49:29;;;;;;;7.13;5.50;;;10.90;99.90;;;;;;5060446;28;20251;-55
2021/10/19 06:51:56;;;;;;;8.55;5.93;;;11.10;99.90;;;;;;5059944;28;20508;-55
2021/10/19 06:54:24;;;;;;;9.32;5.47;;;11.10;99.90;;;;;;5057560;28;20209;-54
2021/10/19 06:56:51;;;;;;;6.30;5.10;;;11.30;99.90;;;;;;5053089;28;20264;-50
2021/10/19 06:59:18;;;;;;;7.22;5.70;;;11.40;99.90;;;;;;5055657;28;20500;-50
2021/10/19 07:01:45;;;;;;;6.13;5.53;;;11.50;99.90;;;;;;5058429;28;20201;-48
2021/10/19 07:04:12;;;;;;;6.05;5.20;;;11.60;99.90;;;;;;5053168;28;20202;-55
2021/10/19 07:06:39;;;;;;;10.85;5.95;;;11.80;99.90;;;;;;5059839;28;20509;-51
2021/10/19 07:09:07;;;;;;;5.45;4.93;;;12.10;99.90;;;;;;5059334;28;20516;-52
2021/10/19 07:11:34;;;;;;;6.60;5.60;;;12.70;99.90;;;;;;5058953;28;20206;-51
2021/10/19 07:14:02;;;;;;;7.40;5.30;;;13.20;99.90;;;;;;5057469;28;20203;-54
2021/10/19 07:16:29;;;;;;;11.07;5.45;;;13.60;99.90;;;;;;5053964;28;20441;-51
2021/10/19 07:18:56;;;;;;;5.50;4.93;;;14.00;99.90;;;;;;5059928;28;20220;-55
2021/10/19 07:21:23;;;;;;;6.93;4.90;;;14.60;99.90;;;;;;5054866;28;20280;-52
2021/10/19 07:23:51;;;;;;;6.32;5.18;;;15.10;99.90;;;;;;5052394;28;20195;-54
2021/10/19 07:26:18;;;;;;;8.57;5.97;;;15.40;99.90;;;;;;5053481;28;20218;-45
2021/10/19 07:28:45;;;;;;;5.63;5.15;;;15.50;99.90;;;;;;5060689;28;20219;-50
2021/10/19 07:31:13;;;;;;;6.93;5.60;;;15.30;99.90;;;;;;5052986;28;20211;-55
2021/10/19 07:33:40;;;;;;;5.65;4.53;;;15.20;99.90;;;;;;5057500;28;20235;-53
2021/10/19 07:36:07;;;;;;;11.32;5.00;;;15.00;99.90;;;;;;5056012;28;20269;-54
2021/10/19 07:38:34;;;;;;;6.95;5.72;;;15.10;99.90;;;;;;5049935;28;20235;-51
2021/10/19 07:41:02;;;;;;;7.10;6.40;;;14.90;99.90;;;;;;5050216;28;20427;-53
2021/10/19 07:43:29;;;;;;;5.40;4.47;;;14.80;99.90;;;;;;5056212;28;20230;-57
2021/10/19 07:45:56;;;;;;;7.15;5.60;;;14.80;99.90;;;;;;5060608;28;20195;-54
2021/10/19 07:48:24;;;;;;;5.22;4.72;;;14.80;99.90;;;;;;5060655;28;20265;-61
2021/10/19 07:50:51;;;;;;;4.80;4.40;;;14.90;99.90;;;;;;5056240;28;20253;-53
2021/10/19 07:53:18;;;;;;;5.65;4.93;;;14.60;99.90;;;;;;5060361;28;20253;-54
2021/10/19 07:55:45;;;;;;;8.77;4.85;;;14.60;99.90;;;;;;5063296;28;20506;-55
2021/10/19 07:58:12;;;;;;;4.72;4.32;;;14.40;99.90;;;;;;5058069;28;20219;-52
2021/10/19 08:00:40;;;;;;;7.38;5.97;;;14.30;99.90;;;;;;5062905;28;20269;-56
2021/10/19 08:03:07;;;;;;;5.80;5.25;;;14.20;99.90;;;;;;5066077;28;20206;-58
2021/10/19 08:05:35;;;;;;;6.40;5.38;;;14.60;99.90;;;;;;5057625;28;20247;-57
2021/10/19 08:08:08;;;;;;;5.60;4.97;;;15.10;99.90;;;;;;5061222;28;20497;-54
2021/10/19 08:10:40;;;;;;;4.97;4.47;;;15.80;99.90;;;;;;5054171;28;20227;-56
2021/10/19 08:13:09;;;;;;;5.05;4.75;;;16.40;99.90;;;;;;5057065;28;20254;-56
2021/10/19 08:15:37;;;;;;;4.83;4.33;;;16.70;99.90;;;;;;5057287;28;20258;-53
2021/10/19 08:18:05;;;;;;;6.17;5.60;;;17.30;99.90;;;;;;5053238;28;20459;-53
2021/10/19 08:20:34;;;;;;;4.83;4.40;;;18.00;99.90;;;;;;5060325;28;20525;-50
2021/10/19 08:23:01;;;;;;;5.80;5.37;;;18.80;99.90;;;;;;5059830;28;20407;-57
2021/10/19 08:25:28;;;;;;;7.63;6.50;;;19.30;99.90;;;;;;5058615;28;20612;-51
2021/10/19 08:27:56;;;;;;;5.83;5.37;;;19.60;99.90;;;;;;5054643;28;20429;-53
2021/10/19 08:30:24;;;;;;;6.53;5.93;;;19.50;99.90;;;;;;5055971;28;20426;-49
2021/10/19 08:32:52;;;;;;;7.13;6.20;;;19.10;99.90;;;;;;5059815;28;20447;-50
2021/10/19 08:35:23;;;;;;;5.53;5.13;;;19.30;99.90;;;;;;5056875;28;20730;-52
2021/10/19 08:37:52;;;;;;;6.73;5.93;;;18.70;99.90;;;;;;5059541;28;20443;-52
2021/10/19 08:40:21;;;;;;;4.97;4.67;;;18.10;99.90;;;;;;5056014;28;20446;-52
2021/10/19 08:42:51;;;;;;;4.80;4.50;;;17.80;99.90;;;;;;5050315;28;20436;-53
2021/10/19 08:45:20;;;;;;;5.30;4.90;;;17.90;99.90;;;;;;5054669;28;20813;-48
2021/10/19 08:47:48;;;;;;;6.67;6.00;;;17.70;99.90;;;;;;5046054;28;20438;-51
2021/10/19 08:50:18;;;;;;;5.87;5.43;;;17.80;99.90;;;;;;5052639;28;20414;-50
2021/10/19 08:52:47;;;;;;;5.40;4.90;;;17.50;99.90;;;;;;5055589;28;20456;-46
2021/10/19 08:55:15;;;;;;;4.70;4.40;;;17.10;99.90;;;;;;5054745;28;20755;-51
2021/10/19 08:57:43;;;;;;;4.70;4.40;;;16.80;99.90;;;;;;5051513;28;20467;-51
2021/10/19 09:00:11;;;;;;;8.57;5.73;;;16.80;99.90;;;;;;5056145;28;20788;-54
2021/10/19 09:02:40;;;;;;;6.93;6.23;;;16.80;99.90;;;;;;5059024;28;20403;-51
2021/10/19 09:05:15;;;;;;;4.57;3.83;;;17.10;99.90;;;;;;5048416;28;20472;-53
2021/10/19 09:08:00;;;;;;;5.80;5.13;;;17.10;99.90;;;;;;5057485;28;20438;-50
2021/10/19 09:10:33;;;;;;;4.80;4.40;;;17.10;99.90;;;;;;5047479;28;20478;-51
2021/10/19 09:13:09;;;;;;;5.80;4.60;;;17.00;99.90;;;;;;5056860;28;20460;-54
2021/10/19 09:15:39;;;;;;;5.20;4.80;;;17.30;99.90;;;;;;5054135;28;20509;-52
2021/10/19 09:18:15;;;;;;;4.13;3.90;;;17.30;99.90;;;;;;5055410;28;20428;-58
2021/10/19 09:20:46;;;;;;;4.33;4.13;;;17.10;99.90;;;;;;5056247;28;20457;-52
2021/10/19 09:23:15;;;;;;;4.27;4.03;;;17.00;99.90;;;;;;5056866;28;20413;-51
2021/10/19 09:25:44;;;;;;;4.87;4.57;;;16.80;99.90;;;;;;5063788;28;20744;-54
2021/10/19 09:28:14;;;;;;;4.70;4.40;;;16.80;99.90;;;;;;5063076;28;20476;-55
2021/10/19 09:30:50;;;;;;;6.93;5.00;;;16.70;99.90;;;;;;5059502;28;20418;-53
2021/10/19 09:33:19;;;;;;;5.20;4.80;;;17.00;99.90;;;;;;5053361;28;20763;-55
2021/10/19 09:35:51;;;;;;;4.63;4.33;;;17.00;99.90;;;;;;5059155;28;20424;-55
2021/10/19 09:38:19;;;;;;;5.43;4.87;;;16.90;99.90;;;;;;5049878;28;20841;-53
2021/10/19 09:40:50;;;;;;;6.93;6.27;;;16.80;99.90;;;;;;5063253;28;20558;-50
2021/10/19 09:43:20;;;;;;;6.13;5.63;;;16.70;99.90;;;;;;5063310;28;20408;-51
2021/10/19 09:45:52;;;;;;;4.37;4.17;;;16.80;99.90;;;;;;5049909;28;20711;-55
2021/10/19 09:48:31;;;;;;;6.47;5.97;;;16.90;99.90;;;;;;5051263;28;20432;-45
2021/10/19 09:51:02;;;;;;;6.83;6.30;;;17.00;99.90;;;;;;5057548;28;20410;-52
2021/10/19 09:53:30;;;;;;;6.23;5.73;;;17.10;99.90;;;;;;5058246;28;20735;-56
2021/10/19 09:55:58;;;;;;;5.37;4.93;;;16.90;99.90;;;;;;5060132;28;20580;-55
2021/10/19 09:58:28;;;;;;;7.10;4.83;;;17.10;99.90;;;;;;5054741;28;20797;-54
2021/10/19 10:00:55;;;;;;;4.43;4.23;;;17.20;99.90;;;;;;5062300;28;20471;-57
2021/10/19 10:03:23;;;;;;;5.03;4.40;;;17.20;99.90;;;;;;5062272;28;20439;-56
2021/10/19 10:05:51;;;;;;;4.90;4.33;;;17.20;99.90;;;;;;5058892;28;20432;-55
2021/10/19 10:08:21;;;;;;;6.07;5.67;;;17.40;99.90;;;;;;5062251;28;20498;-51
2021/10/19 10:10:55;;;;;;;6.60;6.13;;;17.50;99.90;;;;;;5056195;28;20487;-48
2021/10/19 10:13:23;;;;;;;6.17;5.63;;;17.70;99.90;;;;;;5054373;28;20662;-50
2021/10/19 10:15:51;;;;;;;5.00;4.70;;;17.90;99.90;;;;;;5062359;28;20655;-53
2021/10/19 10:18:32;;;;;;;5.10;4.70;;;18.00;99.90;;;;;;5062229;28;20513;-50
2021/10/19 10:21:13;;;;;;;4.90;4.60;;;18.00;99.90;;;;;;5062021;28;20475;-54
2021/10/19 10:23:42;;;;;;;5.03;4.83;;;18.00;99.90;;;;;;5056521;28;20406;-53
2021/10/19 10:26:21;;;;;;;5.20;4.90;;;18.10;99.90;;;;;;5062160;28;20414;-53
2021/10/19 10:28:49;;;;;;;6.97;6.00;;;18.10;99.90;;;;;;5062226;28;20650;-56
2021/10/19 10:31:21;;;;;;;6.17;5.23;;;18.00;99.90;;;;;;5059250;28;20485;-54
2021/10/19 10:34:04;;;;;;;5.10;4.67;;;18.10;99.90;;;;;;5062287;28;20508;-55
2021/10/19 10:36:39;;;;;;;5.13;4.63;;;18.30;99.90;;;;;;5056474;28;20506;-59
2021/10/19 10:39:08;;;;;;;4.43;4.13;;;18.20;99.90;;;;;;5059353;28;20460;-50
2021/10/19 10:41:43;;;;;;;6.43;5.70;;;18.00;99.90;;;;;;5061911;28;20627;-53
2021/10/19 10:44:13;;;;;;;5.80;5.20;;;17.80;99.90;;;;;;5049162;28;20496;-53
2021/10/19 10:46:41;;;;;;;5.37;5.00;;;17.50;99.90;;;;;;5054857;28;20470;-52
2021/10/19 10:49:14;;;;;;;5.07;4.77;;;17.30;99.90;;;;;;5046360;28;20409;-53
2021/10/19 10:51:43;;;;;;;4.93;4.60;;;17.20;99.90;;;;;;5060563;28;20557;-56
2021/10/19 10:54:15;;;;;;;5.03;4.73;;;17.20;99.90;;;;;;5051936;28;20409;-53
2021/10/19 10:56:47;;;;;;;5.27;4.97;;;17.10;99.90;;;;;;5048623;28;20445;-45
2021/10/19 10:59:33;;;;;;;5.43;5.10;;;17.00;99.90;;;;;;5058070;28;20418;-50
2021/10/19 11:02:09;;;;;;;6.03;5.73;;;17.00;99.90;;;;;;5055274;28;20606;-55
2021/10/19 11:04:47;;;;;;;5.63;5.17;;;17.10;99.90;;;;;;5058464;28;20413;-52
2021/10/19 11:07:45;;;;;;;5.40;5.00;;;17.10;99.90;;;;;;5058572;28;20828;-56
2021/10/19 11:10:16;;;;;;;5.70;5.30;;;17.30;99.90;;;;;;5042934;28;20498;-51
2021/10/19 11:12:44;;;;;;;5.33;5.00;;;17.20;99.90;;;;;;5060214;28;20425;-48
2021/10/19 11:15:17;;;;;;;5.47;5.13;;;17.10;99.90;;;;;;5056590;28;20509;-56
2021/10/19 11:17:52;;;;;;;6.63;5.60;;;17.10;99.90;;;;;;5056259;28;20650;-52
2021/10/19 11:20:21;;;;;;;6.20;5.80;;;17.00;99.90;;;;;;5061245;28;20414;-51
2021/10/19 11:22:49;;;;;;;5.10;4.80;;;16.90;99.90;;;;;;5057665;28;20472;-54
2021/10/19 11:25:17;;;;;;;4.87;4.60;;;16.90;99.90;;;;;;5059507;28;20465;-52
2021/10/19 11:27:45;;;;;;;5.43;5.03;;;17.10;99.90;;;;;;5056185;28;20479;-55
2021/10/19 11:30:13;;;;;;;5.00;4.80;;;17.10;99.90;;;;;;5060775;28;20489;-56
2021/10/19 11:32:41;;;;;;;5.00;4.80;;;17.20;99.90;;;;;;5055322;28;20456;-51
2021/10/19 11:35:09;;;;;;;5.07;4.77;;;17.20;99.90;;;;;;5053965;28;20786;-51
2021/10/19 11:37:38;;;;;;;5.60;5.20;;;17.20;99.90;;;;;;5055030;28;20456;-54
2021/10/19 11:40:10;;;;;;;5.60;5.20;;;17.20;99.90;;;;;;5058955;28;20644;-52
2021/10/19 11:42:47;;;;;;;5.73;5.13;;;17.20;99.90;;;;;;5050180;28;20463;-56
2021/10/19 11:45:16;;;;;;;5.20;4.90;;;17.20;99.90;;;;;;5060616;28;20699;-52
2021/10/19 11:47:58;;;;;;;5.30;4.90;;;17.20;99.90;;;;;;5047183;28;20437;-53
2021/10/19 11:50:31;;;;;;;5.30;4.90;;;17.30;99.90;;;;;;5054431;28;20403;-54
2021/10/19 11:53:02;;;;;;;5.70;5.20;;;17.40;99.90;;;;;;5060142;28;20435;-56
2021/10/19 11:55:32;;;;;;;4.83;4.53;;;17.50;99.90;;;;;;5058387;28;20454;-57
2021/10/19 11:58:03;;;;;;;6.20;5.67;;;17.50;99.90;;;;;;5053938;28;20471;-55
2021/10/19 12:00:35;;;;;;;5.57;5.27;;;17.50;99.90;;;;;;5056067;28;20411;-51
2021/10/19 12:03:03;;;;;;;5.33;5.03;;;17.80;99.90;;;;;;5058660;28;20430;-50
2021/10/19 12:05:30;;;;;;;5.30;5.00;;;17.90;99.90;;;;;;5051780;28;20755;-53
2021/10/19 12:08:00;;;;;;;5.13;4.90;;;17.80;99.90;;;;;;5056961;28;20434;-51
2021/10/19 12:10:29;;;;;;;5.93;5.53;;;17.70;99.90;;;;;;5049318;28;20507;-53
2021/10/19 12:12:57;;;;;;;5.07;4.77;;;17.80;99.90;;;;;;5054671;28;20562;-54
2021/10/19 12:15:26;;;;;;;5.87;5.37;;;17.80;99.90;;;;;;5047315;28;20678;-51
2021/10/19 12:18:16;;;;;;;5.93;5.33;;;18.00;99.90;;;;;;5059916;28;20426;-51
2021/10/19 12:20:46;;;;;;;6.40;5.90;;;18.20;99.90;;;;;;5054038;28;20436;-58
2021/10/19 12:23:14;;;;;;;5.80;5.30;;;18.10;99.90;;;;;;5054608;28;21855;-51
2021/10/19 12:25:47;;;;;;;4.53;4.23;;;17.90;99.90;;;;;;5060304;28;20425;-53
2021/10/19 12:28:17;;;;;;;5.00;4.70;;;17.90;99.90;;;;;;5055636;28;20674;-52
2021/10/19 12:30:44;;;;;;;5.43;5.03;;;18.00;99.90;;;;;;5057481;28;20554;-56
2021/10/19 12:33:17;;;;;;;6.30;5.80;;;18.00;99.90;;;;;;5057028;28;20456;-55
2021/10/19 12:35:56;;;;;;;5.20;4.70;;;18.20;99.90;;;;;;5051018;28;20781;-52
2021/10/19 12:38:29;;;;;;;5.10;4.80;;;18.20;99.90;;;;;;5052491;28;20459;-54
2021/10/19 12:41:14;;;;;;;5.60;5.30;;;18.10;99.90;;;;;;5051047;28;20415;-53
2021/10/19 12:43:49;;;;;;;7.10;4.90;;;18.10;99.90;;;;;;5057112;28;20590;-61
2021/10/19 12:46:22;;;;;;;6.30;5.90;;;18.30;99.90;;;;;;5056376;28;20678;-56
2021/10/19 12:48:51;;;;;;;6.00;5.60;;;18.30;99.90;;;;;;5055152;28;20478;-53
2021/10/19 12:51:21;;;;;;;5.20;4.77;;;18.30;99.90;;;;;;5048782;28;20522;-51
2021/10/19 12:53:51;;;;;;;5.37;4.97;;;18.20;99.90;;;;;;5040853;28;20701;-52